Time;durP1;ratioP1;P1;durP2;ratioP2;P2;SDS_P1;SDS_P2;PMS_P1;PMS_P2;Temp;Humidity;BMP_temperature;BMP_pressure;BME280_temperature;BME280_humidity;BME280_pressure;Samples;Min_cycle;Max_cycle;Signal;HPM_P1;HPM_P2
2022/09/22 00:01:10;;;;;;;1.60;1.40;;;;;;;8.69;87.09;98800.61;104346;1284;63700;-23
2022/09/22 00:03:41;;;;;;;3.30;1.80;;;;;;;9.02;86.36;98806.02;104238;1287;63187;-23
2022/09/22 00:06:14;;;;;;;4.30;1.70;;;;;;;9.44;84.26;98800.48;103961;1287;72903;-23
2022/09/22 00:08:43;;;;;;;2.10;1.90;;;;;;;9.30;84.12;98803.63;104347;1282;75953;-23
2022/09/22 00:11:15;;;;;;;7.10;2.00;;;;;;;9.15;84.65;98802.29;103378;1281;1153475;-23
2022/09/22 00:13:45;;;;;;;1.80;1.60;;;;;;;8.94;85.78;98800.77;104476;1281;62426;-23
2022/09/22 00:16:13;;;;;;;3.00;1.90;;;;;;;8.81;86.78;98797.14;104620;1278;61672;-23
2022/09/22 00:18:40;;;;;;;3.30;2.20;;;;;;;9.05;86.24;98800.64;104507;1281;75160;-23
2022/09/22 00:21:11;;;;;;;2.90;2.00;;;;;;;9.35;84.40;98800.66;104548;1281;76960;-23
2022/09/22 00:23:38;;;;;;;5.10;2.30;;;;;;;9.23;84.58;98800.94;104361;1277;75573;-24
2022/09/22 00:26:14;;;;;;;2.00;1.80;;;;;;;9.04;85.49;98803.09;104351;1278;62807;-25
2022/09/22 00:28:42;;;;;;;2.40;2.00;;;;;;;8.86;86.50;98802.30;104430;1278;61992;-26
2022/09/22 00:31:16;;;;;;;3.00;1.60;;;;;;;8.72;87.50;98803.53;104489;1278;73509;-25
2022/09/22 00:33:45;;;;;;;2.50;1.80;;;;;;;9.09;86.55;98806.21;104526;1278;75826;-25
2022/09/22 00:36:13;;;;;;;2.30;2.00;;;;;;;9.45;84.05;98800.39;104475;1282;74365;-23
2022/09/22 00:38:41;;;;;;;3.20;2.20;;;;;;;9.27;84.31;98803.71;104507;1278;61767;-23
2022/09/22 00:41:14;;;;;;;2.30;2.00;;;;;;;9.08;85.05;98800.16;104457;1277;63029;-24
2022/09/22 00:43:42;;;;;;;3.40;1.90;;;;;;;8.88;86.08;98796.25;104369;1278;74783;-25
2022/09/22 00:46:12;;;;;;;3.60;2.40;;;;;;;8.75;87.05;98798.94;104619;1278;75903;-25
2022/09/22 00:48:46;;;;;;;4.70;1.90;;;;;;;9.15;86.20;98800.50;104627;1278;75490;-23
2022/09/22 00:51:13;;;;;;;;;;;;;;;9.45;84.15;98795.02;104509;1277;61243;-25
2022/09/22 00:53:42;;;;;;;2.60;1.90;;;;;;;9.27;83.96;98796.30;104484;1278;62798;-23
2022/09/22 00:56:12;;;;;;;3.10;2.20;;;;;;;9.07;84.37;98795.95;104411;1277;76123;-26
2022/09/22 00:58:45;;;;;;;2.90;1.70;;;;;;;8.71;85.26;98794.56;104319;1278;76942;-23
2022/09/22 01:01:13;;;;;;;3.30;2.00;;;;;;;8.64;86.37;98800.65;104182;1278;74074;-25
2022/09/22 01:03:41;;;;;;;2.60;1.90;;;;;;;9.14;84.37;98795.19;104309;1278;63184;-25
2022/09/22 01:06:11;;;;;;;2.30;1.90;;;;;;;9.25;83.01;98795.73;104227;1278;63035;-25
2022/09/22 01:08:38;;;;;;;2.30;1.70;;;;;;;9.17;83.13;98796.70;104307;1278;75726;-25
2022/09/22 01:11:05;;;;;;;2.10;1.80;;;;;;;9.07;83.40;98797.67;104265;1277;76966;-25
2022/09/22 01:13:41;;;;;;;3.30;2.00;;;;;;;8.87;84.31;98797.70;104391;1280;75463;-25
2022/09/22 01:16:14;;;;;;;1.60;1.20;;;;;;;8.67;85.57;98793.49;104224;1278;63415;-24
2022/09/22 01:19:20;;;;;;;2.30;1.80;;;;;;;9.04;84.11;98789.95;104303;1278;63144;-25
2022/09/22 01:22:15;;;;;;;3.40;1.80;;;;;;;9.29;82.25;98791.25;104395;1281;75494;-25
2022/09/22 01:25:10;;;;;;;2.10;1.70;;;;;;;9.15;82.65;98798.16;104257;1278;77016;-25
2022/09/22 01:27:59;;;;;;;2.40;2.00;;;;;;;8.94;83.35;98793.48;104213;1281;75366;-24
2022/09/22 01:30:42;;;;;;;2.00;1.30;;;;;;;8.74;84.86;98796.08;104204;1281;64842;-25
2022/09/22 01:33:28;;;;;;;1.70;1.60;;;;;;;9.22;83.55;98792.69;104533;1281;61054;-25
2022/09/22 01:36:01;;;;;;;2.20;1.80;;;;;;;9.53;81.75;98790.39;104611;1278;75753;-25
2022/09/22 01:38:55;;;;;;;2.80;1.80;;;;;;;9.46;81.66;98789.23;104484;1278;76979;-25
2022/09/22 01:41:37;;;;;;;2.30;2.00;;;;;;;9.04;83.27;98787.91;104510;1281;75342;-25
2022/09/22 01:44:07;;;;;;;3.50;2.30;;;;;;;8.84;84.18;98792.38;104475;1278;63124;-25
2022/09/22 01:46:37;;;;;;;2.60;1.90;;;;;;;8.57;85.45;98794.80;104488;1278;62828;-25
2022/09/22 01:49:07;;;;;;;3.30;1.80;;;;;;;8.95;84.72;98799.63;104444;1280;75768;-25
2022/09/22 01:51:43;;;;;;;2.70;2.30;;;;;;;9.28;82.53;98796.52;104255;1278;75911;-25
2022/09/22 01:54:14;;;;;;;1.80;1.60;;;;;;;9.29;82.48;98798.00;103921;1278;74427;-25
2022/09/22 01:56:41;;;;;;;2.80;1.70;;;;;;;9.14;82.76;98801.10;104494;1278;62067;-25
2022/09/22 01:59:08;;;;;;;2.70;2.20;;;;;;;8.91;83.61;98802.75;104478;1278;61795;-25
2022/09/22 02:01:49;;;;;;;1.90;1.30;;;;;;;8.68;84.91;98806.75;104456;1278;74486;-25
2022/09/22 02:04:20;;;;;;;2.30;1.60;;;;;;;9.18;84.05;98809.09;104610;1277;76936;-25
2022/09/22 02:06:59;;;;;;;2.70;1.90;;;;;;;9.50;81.76;98811.23;104260;1278;75141;-25
2022/09/22 02:09:28;;;;;;;3.00;1.70;;;;;;;9.31;81.74;98814.01;104634;1274;61738;-25
2022/09/22 02:11:58;;;;;;;2.40;2.20;;;;;;;9.14;82.31;98811.55;104694;1275;62875;-25
2022/09/22 02:14:25;;;;;;;3.00;2.00;;;;;;;8.83;83.73;98811.11;104683;1274;73895;-25
2022/09/22 02:16:52;;;;;;;1.20;1.00;;;;;;;8.69;84.90;98817.09;104683;1275;76835;-25
2022/09/22 02:19:38;;;;;;;1.90;1.40;;;;;;;9.09;83.92;98818.48;104633;1274;75457;-25
2022/09/22 02:22:06;;;;;;;1.50;1.30;;;;;;;9.53;81.78;98819.17;104571;1274;62783;-25
2022/09/22 02:24:34;;;;;;;3.70;1.70;;;;;;;9.50;81.18;98819.05;104619;1275;62956;-25
2022/09/22 02:27:25;;;;;;;1.90;1.50;;;;;;;9.25;81.69;98817.23;104607;1274;76112;-25
2022/09/22 02:29:59;;;;;;;2.40;1.90;;;;;;;8.86;83.14;98817.34;104691;1277;75042;-25
2022/09/22 02:32:26;;;;;;;;;;;;;;;8.62;84.64;98818.15;104752;1274;74239;-25
2022/09/22 02:34:54;;;;;;;2.80;1.70;;;;;;;8.93;83.94;98811.23;104670;1274;62214;-25
2022/09/22 02:37:46;;;;;;;2.00;1.60;;;;;;;9.31;82.05;98813.45;104576;1275;61726;-25
2022/09/22 02:40:36;;;;;;;2.60;1.80;;;;;;;9.18;82.32;98808.11;104284;1274;74514;-25
2022/09/22 02:43:23;;;;;;;2.40;1.90;;;;;;;8.85;83.59;98803.36;104620;1274;75988;-25
2022/09/22 02:46:15;;;;;;;2.60;1.90;;;;;;;8.47;85.71;98801.94;104343;1278;75475;-25
2022/09/22 02:48:46;;;;;;;2.30;1.60;;;;;;;8.56;86.04;98805.46;104551;1275;64817;-25
2022/09/22 02:51:14;;;;;;;3.40;1.90;;;;;;;8.96;84.47;98806.80;104439;1274;62460;-25
2022/09/22 02:53:41;;;;;;;4.30;2.10;;;;;;;9.00;84.01;98807.41;104547;1275;76060;-25
2022/09/22 02:56:08;;;;;;;2.00;1.80;;;;;;;8.78;84.99;98810.67;104687;1275;76830;-25
2022/09/22 02:58:35;;;;;;;3.40;2.50;;;;;;;8.64;85.86;98812.63;104457;1274;75404;-25
2022/09/22 03:01:02;;;;;;;4.70;2.10;;;;;;;8.56;86.24;98811.36;104585;1275;63579;-25
2022/09/22 03:03:29;;;;;;;4.50;2.20;;;;;;;8.88;85.35;98808.85;104547;1275;62015;-25
2022/09/22 03:05:56;;;;;;;2.50;2.10;;;;;;;9.27;83.73;98810.48;104644;1274;75718;-25
2022/09/22 03:08:23;;;;;;;3.70;2.40;;;;;;;9.17;83.41;98812.15;104687;1274;75232;-25
2022/09/22 03:10:50;;;;;;;2.80;2.00;;;;;;;8.91;84.61;98810.37;104614;1274;75438;-25
2022/09/22 03:13:17;;;;;;;3.90;2.70;;;;;;;8.77;85.25;98814.20;104609;1274;63252;-25
2022/09/22 03:15:45;;;;;;;2.30;1.50;;;;;;;8.60;86.40;98812.92;104730;1275;63024;-25
2022/09/22 03:18:13;;;;;;;2.10;1.90;;;;;;;8.96;85.79;98816.19;104702;1275;74877;-25
2022/09/22 03:20:40;;;;;;;2.30;2.10;;;;;;;9.44;83.76;98816.63;104851;1274;77145;-25
2022/09/22 03:23:07;;;;;;;2.50;2.10;;;;;;;9.31;83.25;98818.30;104807;1274;76123;-25
2022/09/22 03:25:34;;;;;;;4.50;2.60;;;;;;;9.16;84.00;98815.86;104790;1274;63030;-25
2022/09/22 03:28:01;;;;;;;2.90;2.60;;;;;;;8.82;85.62;98816.05;104809;1275;62980;-25
2022/09/22 03:30:28;;;;;;;2.20;1.80;;;;;;;8.66;86.74;98814.85;104843;1274;74803;-25
2022/09/22 03:32:56;;;;;;;3.20;2.30;;;;;;;9.06;85.90;98812.48;104807;1274;76326;-25
2022/09/22 03:35:23;;;;;;;3.50;2.70;;;;;;;9.39;84.25;98813.02;104611;1274;74259;-25
2022/09/22 03:37:50;;;;;;;3.00;2.70;;;;;;;9.27;84.34;98813.94;104628;1274;62998;-24
2022/09/22 03:40:17;;;;;;;4.70;3.60;;;;;;;9.15;85.16;98813.52;104587;1274;63150;-24
2022/09/22 03:42:45;;;;;;;6.20;3.20;;;;;;;8.92;86.06;98809.08;104604;1274;75596;-24
2022/09/22 03:45:13;;;;;;;2.50;1.90;;;;;;;8.69;87.49;98813.75;104590;1274;75789;-24
2022/09/22 03:47:40;;;;;;;5.70;2.60;;;;;;;9.05;87.12;98814.65;104618;1274;75135;-24
2022/09/22 03:50:08;;;;;;;5.40;3.10;;;;;;;9.32;85.61;98814.78;104629;1274;61057;-24
2022/09/22 03:52:35;;;;;;;3.30;2.70;;;;;;;9.36;85.32;98817.05;104741;1274;61941;-23
2022/09/22 03:55:03;;;;;;;3.90;3.00;;;;;;;9.22;85.73;98820.05;104828;1274;74597;-24
2022/09/22 03:57:30;;;;;;;4.20;3.40;;;;;;;9.02;86.51;98817.48;104760;1274;76983;-24
2022/09/22 03:59:57;;;;;;;5.10;2.30;;;;;;;8.71;88.47;98819.00;104774;1274;75128;-24
2022/09/22 04:02:24;;;;;;;3.30;2.80;;;;;;;9.02;87.62;98817.13;104651;1274;62795;-24
2022/09/22 04:04:51;;;;;;;4.80;3.40;;;;;;;9.29;86.18;98817.05;104659;1274;62905;-24
2022/09/22 04:07:18;;;;;;;4.30;3.40;;;;;;;9.27;86.04;98815.88;104768;1274;73735;-24
2022/09/22 04:09:45;;;;;;;4.70;3.60;;;;;;;9.05;86.60;98814.98;104728;1274;76797;-24
2022/09/22 04:12:12;;;;;;;3.80;3.30;;;;;;;8.96;87.35;98811.39;104781;1274;75283;-24
2022/09/22 04:14:39;;;;;;;3.20;2.30;;;;;;;8.84;87.94;98811.92;104780;1274;63785;-24
2022/09/22 04:17:06;;;;;;;7.20;3.30;;;;;;;9.15;86.99;98805.70;104745;1275;62742;-24
2022/09/22 04:19:35;;;;;;;4.00;2.80;;;;;;;9.49;85.11;98808.39;104789;1274;76277;-24
2022/09/22 04:22:02;;;;;;;3.80;3.10;;;;;;;9.40;85.21;98807.92;104820;1274;76677;-24
2022/09/22 04:24:29;;;;;;;6.20;4.00;;;;;;;9.30;85.55;98810.94;104549;1277;74372;-24
2022/09/22 04:26:56;;;;;;;3.90;3.20;;;;;;;9.05;86.77;98812.20;104566;1274;63144;-24
2022/09/22 04:29:43;;;;;;;4.00;2.10;;;;;;;8.97;87.43;98805.36;104569;1274;62957;-24
2022/09/22 04:32:10;;;;;;;4.90;2.80;;;;;;;9.42;85.87;98810.13;104599;1274;76341;-24
2022/09/22 04:34:37;;;;;;;3.90;3.00;;;;;;;9.56;84.59;98806.13;104581;1272;76757;-24
2022/09/22 04:37:04;;;;;;;3.70;2.70;;;;;;;9.60;84.14;98808.59;104577;1274;74456;-24
2022/09/22 04:39:32;;;;;;;4.40;3.40;;;;;;;9.38;84.86;98805.45;104644;1274;61722;-24
2022/09/22 04:41:59;;;;;;;4.30;3.40;;;;;;;9.28;85.28;98807.30;104707;1274;62647;-24
2022/09/22 04:44:26;;;;;;;2.20;1.70;;;;;;;9.14;86.26;98809.08;104795;1274;74421;-24
2022/09/22 04:46:54;;;;;;;3.30;2.40;;;;;;;9.55;84.86;98808.77;104842;1274;77728;-24
2022/09/22 04:49:22;;;;;;;3.40;2.80;;;;;;;9.96;83.15;98804.40;104794;1274;75273;-24
2022/09/22 04:51:49;;;;;;;3.70;2.80;;;;;;;9.94;82.44;98807.48;104789;1274;61755;-25
2022/09/22 04:54:16;;;;;;;3.60;2.70;;;;;;;9.77;83.29;98812.73;104861;1274;63087;-25
2022/09/22 04:56:43;;;;;;;5.10;3.30;;;;;;;9.46;84.07;98809.29;104845;1274;76562;-25
2022/09/22 04:59:10;;;;;;;3.50;2.30;;;;;;;9.25;85.17;98808.95;104834;1274;76993;-26
2022/09/22 05:01:37;;;;;;;3.50;2.50;;;;;;;9.75;84.30;98813.75;104868;1274;75360;-26
2022/09/22 05:04:05;;;;;;;6.70;2.80;;;;;;;10.19;82.00;98816.89;104856;1272;62097;-23
2022/09/22 05:06:32;;;;;;;5.00;3.50;;;;;;;10.14;81.27;98819.98;104848;1274;62994;-24
2022/09/22 05:08:59;;;;;;;3.90;3.10;;;;;;;9.92;82.08;98816.36;104696;1274;75194;-24
2022/09/22 05:11:26;;;;;;;4.10;3.30;;;;;;;9.70;83.13;98818.31;104685;1274;77355;-23
2022/09/22 05:13:54;;;;;;;6.50;3.20;;;;;;;9.52;83.62;98820.62;104586;1274;75456;-24
2022/09/22 05:16:22;;;;;;;4.00;3.00;;;;;;;9.84;83.71;98820.28;104623;1274;62823;-26
2022/09/22 05:18:49;;;;;;;4.90;3.40;;;;;;;10.11;81.57;98818.24;104648;1274;62044;-26
2022/09/22 05:21:17;;;;;;;3.50;3.10;;;;;;;10.05;81.54;98820.32;104633;1274;76529;-25
2022/09/22 05:23:45;;;;;;;4.30;3.50;;;;;;;9.96;81.85;98817.60;104763;1271;75674;-25
2022/09/22 05:26:12;;;;;;;5.20;3.20;;;;;;;9.74;82.61;98815.73;104985;1270;75401;-24
2022/09/22 05:28:39;;;;;;;4.60;2.70;;;;;;;9.53;83.47;98815.52;104846;1271;64435;-23
2022/09/22 05:31:07;;;;;;;5.20;2.80;;;;;;;9.80;82.89;98819.23;104894;1271;61898;-25
2022/09/22 05:33:33;;;;;;;4.00;3.20;;;;;;;10.14;80.98;98822.22;105020;1271;76595;-24
2022/09/22 05:36:01;;;;;;;5.80;3.60;;;;;;;10.13;81.01;98824.33;104937;1271;76937;-23
2022/09/22 05:38:28;;;;;;;5.00;3.60;;;;;;;9.93;81.75;98820.65;104849;1271;75425;-23
2022/09/22 05:40:55;;;;;;;4.40;3.50;;;;;;;9.79;82.81;98821.91;105014;1269;61140;-23
2022/09/22 05:43:22;;;;;;;4.10;2.70;;;;;;;9.70;83.74;98824.21;105050;1271;62720;-24
2022/09/22 05:45:49;;;;;;;6.40;3.10;;;;;;;10.08;83.16;98825.06;104938;1271;75573;-24
2022/09/22 05:48:16;;;;;;;7.20;4.20;;;;;;;10.40;81.23;98816.80;104955;1271;76028;-24
2022/09/22 05:50:44;;;;;;;10.20;3.80;;;;;;;10.21;81.39;98822.13;104938;1271;73610;-24
2022/09/22 05:53:11;;;;;;;4.20;3.60;;;;;;;10.09;82.42;98825.74;104942;1271;61164;-25
2022/09/22 05:55:39;;;;;;;5.70;3.40;;;;;;;9.94;82.88;98822.13;104895;1269;63210;-24
2022/09/22 05:58:08;;;;;;;4.20;3.20;;;;;;;9.72;83.75;98819.05;104809;1271;76670;-25
2022/09/22 06:00:35;;;;;;;4.40;3.30;;;;;;;9.99;83.59;98820.30;105109;1271;76985;-25
2022/09/22 06:03:02;;;;;;;4.10;3.60;;;;;;;10.10;81.94;98821.30;104992;1271;75512;-25
2022/09/22 06:05:30;;;;;;;5.70;4.50;;;;;;;10.11;82.30;98823.66;105179;1271;62062;-23
2022/09/22 06:08:02;;;;;;;3.50;3.10;;;;;;;10.03;82.90;98825.91;105132;1271;63282;-24
2022/09/22 06:10:30;;;;;;;5.60;4.00;;;;;;;9.88;83.30;98822.20;105152;1271;75274;-24
2022/09/22 06:12:58;;;;;;;5.30;3.30;;;;;;;9.53;84.10;98824.02;104975;1271;74791;-23
2022/09/22 06:15:27;;;;;;;4.40;3.70;;;;;;;9.82;83.93;98824.45;104927;1271;74792;-23
2022/09/22 06:17:55;;;;;;;4.50;3.90;;;;;;;10.15;82.42;98827.85;104995;1271;63060;-23
2022/09/22 06:20:22;;;;;;;5.40;3.80;;;;;;;10.14;82.28;98827.39;105049;1271;61665;-25
2022/09/22 06:22:49;;;;;;;6.40;4.10;;;;;;;9.95;82.64;98832.21;105100;1271;75552;-26
2022/09/22 06:25:16;;;;;;;4.10;3.20;;;;;;;9.61;83.49;98832.73;105116;1271;76976;-25
2022/09/22 06:27:44;;;;;;;3.60;2.60;;;;;;;9.65;83.81;98835.16;105003;1271;75461;-25
2022/09/22 06:30:12;;;;;;;4.10;3.50;;;;;;;10.17;81.82;98835.79;105085;1271;61644;-25
2022/09/22 06:32:39;;;;;;;5.30;3.10;;;;;;;10.02;81.45;98834.59;104984;1274;61930;-25
2022/09/22 06:35:06;;;;;;;4.60;3.50;;;;;;;9.90;82.33;98835.11;105139;1271;75338;-25
2022/09/22 06:37:38;;;;;;;4.00;3.10;;;;;;;9.74;82.56;98838.27;105108;1271;75856;-25
2022/09/22 06:40:07;;;;;;;4.90;3.70;;;;;;;9.76;82.84;98840.88;105113;1270;74110;-25
2022/09/22 06:42:34;;;;;;;3.00;2.60;;;;;;;9.71;82.87;98837.67;104896;1271;64348;-23
2022/09/22 06:45:03;;;;;;;5.80;3.20;;;;;;;10.16;81.43;98839.17;105018;1271;63207;-23
2022/09/22 06:47:31;;;;;;;3.70;3.30;;;;;;;10.48;80.21;98842.65;105056;1271;76657;-25
2022/09/22 06:50:01;;;;;;;3.80;3.00;;;;;;;10.32;79.90;98841.48;104855;1270;77169;-25
2022/09/22 06:52:28;;;;;;;4.40;3.60;;;;;;;10.13;80.22;98845.04;104849;1271;75466;-25
2022/09/22 06:54:57;;;;;;;3.90;3.30;;;;;;;9.97;81.14;98842.98;104716;1271;63338;-24
2022/09/22 06:57:31;;;;;;;4.50;2.20;;;;;;;9.90;81.66;98843.90;105031;1271;62380;-25
2022/09/22 06:59:59;;;;;;;6.30;3.40;;;;;;;10.28;80.66;98852.11;104893;1271;76591;-25
2022/09/22 07:02:27;;;;;;;4.90;3.60;;;;;;;10.57;79.16;98850.07;105310;1271;75968;-26
2022/09/22 07:04:57;;;;;;;4.90;4.00;;;;;;;10.65;79.29;98855.84;105006;1271;75410;-22
2022/09/22 07:07:28;;;;;;;4.40;3.10;;;;;;;10.43;80.09;98857.79;105152;1271;62830;-25
2022/09/22 07:09:55;;;;;;;4.50;3.40;;;;;;;10.18;81.32;98860.59;105209;1271;63041;-25
2022/09/22 07:12:24;;;;;;;4.40;2.80;;;;;;;9.72;82.82;98855.77;105090;1271;76541;-25
2022/09/22 07:14:52;;;;;;;5.00;3.90;;;;;;;9.94;82.74;98861.42;105127;1271;75701;-25
2022/09/22 07:17:19;;;;;;;4.10;3.60;;;;;;;10.13;81.32;98860.80;105196;1271;75386;-25
2022/09/22 07:19:46;;;;;;;3.70;3.10;;;;;;;9.92;81.80;98860.20;105127;1271;61978;-24
2022/09/22 07:22:14;;;;;;;4.60;3.60;;;;;;;9.89;81.82;98861.50;104968;1270;63724;-25
2022/09/22 07:24:41;;;;;;;7.00;3.20;;;;;;;9.84;82.58;98863.29;104972;1271;76618;-24
2022/09/22 07:27:09;;;;;;;3.10;2.80;;;;;;;9.62;83.44;98856.95;104768;1271;75976;-24
2022/09/22 07:29:36;;;;;;;4.20;2.60;;;;;;;9.93;82.68;98860.32;105121;1271;75407;-25
2022/09/22 07:32:04;;;;;;;4.40;3.30;;;;;;;10.34;81.28;98862.84;105093;1271;63272;-25
2022/09/22 07:34:31;;;;;;;3.60;3.10;;;;;;;10.05;81.64;98864.91;105132;1271;61050;-24
2022/09/22 07:36:59;;;;;;;3.80;3.00;;;;;;;9.91;82.36;98867.40;105012;1271;75307;-25
2022/09/22 07:39:26;;;;;;;5.80;3.50;;;;;;;9.91;82.86;98871.27;105041;1271;75635;-24
2022/09/22 07:41:54;;;;;;;2.40;2.00;;;;;;;9.74;83.22;98874.33;105091;1271;75146;-25
2022/09/22 07:47:10;;;;;;;4.10;2.50;;;;;;;10.37;80.31;98870.77;105139;1271;61604;-23
2022/09/22 07:49:37;;;;;;;3.70;2.80;;;;;;;10.30;80.03;98867.69;105110;1271;76289;-23
2022/09/22 07:52:04;;;;;;;4.20;3.00;;;;;;;10.16;80.99;98870.20;105121;1271;77111;-23
2022/09/22 07:54:33;;;;;;;5.60;3.60;;;;;;;10.10;80.95;98869.14;105109;1271;74127;-23
2022/09/22 07:57:08;;;;;;;3.00;2.50;;;;;;;9.88;82.73;98867.98;104913;1271;64823;-26
2022/09/22 07:59:38;;;;;;;9.40;2.90;;;;;;;10.34;81.07;98868.27;104996;1271;63084;-24
2022/09/22 08:02:05;;;;;;;4.00;2.70;;;;;;;10.65;79.18;98866.77;104910;1271;76722;-23
2022/09/22 08:04:33;;;;;;;5.00;3.30;;;;;;;10.45;79.40;98870.15;104879;1271;75662;-24
2022/09/22 08:07:01;;;;;;;4.10;2.90;;;;;;;10.31;80.20;98869.58;104971;1271;75380;-24
2022/09/22 08:09:30;;;;;;;5.10;3.10;;;;;;;10.18;81.23;98871.28;105001;1271;63057;-24
2022/09/22 08:11:57;;;;;;;3.70;2.30;;;;;;;10.17;81.02;98872.73;105036;1271;63053;-23
2022/09/22 08:14:25;;;;;;;4.40;2.70;;;;;;;10.66;80.23;98871.52;104747;1271;76120;-23
2022/09/22 08:16:52;;;;;;;5.40;3.10;;;;;;;11.22;77.89;98869.20;104866;1271;76988;-24
2022/09/22 08:19:23;;;;;;;9.30;2.80;;;;;;;11.09;76.55;98875.52;104829;1271;75696;-24
2022/09/22 08:21:52;;;;;;;2.70;2.40;;;;;;;11.08;76.93;98872.64;104801;1271;61176;-24
2022/09/22 08:24:22;;;;;;;6.70;3.20;;;;;;;10.73;77.75;98871.83;104849;1271;63081;-24
2022/09/22 08:26:51;;;;;;;3.50;2.40;;;;;;;10.82;77.66;98875.40;105109;1271;75550;-23
2022/09/22 08:29:23;;;;;;;2.20;1.60;;;;;;;11.09;78.12;98875.36;104825;1271;76980;-24
2022/09/22 08:31:50;;;;;;;2.80;2.20;;;;;;;11.53;74.82;98872.78;104732;1271;74289;-24
2022/09/22 08:34:17;;;;;;;3.20;2.30;;;;;;;11.75;73.28;98877.82;105025;1271;63095;-24
2022/09/22 08:36:47;;;;;;;7.70;2.10;;;;;;;11.99;72.79;98876.02;105089;1271;62684;-25
2022/09/22 08:39:16;;;;;;;2.30;1.90;;;;;;;11.97;71.79;98876.66;104983;1274;76685;-24
2022/09/22 08:41:54;;;;;;;3.30;2.30;;;;;;;12.22;72.24;98874.04;104912;1271;76048;-24
2022/09/22 08:44:31;;;;;;;2.60;2.40;;;;;;;12.05;72.41;98864.05;105033;1271;75169;-24
2022/09/22 08:46:59;;;;;;;2.80;2.30;;;;;;;11.76;73.09;98863.41;104979;1271;61138;-23
2022/09/22 08:52:42;;;;;;;23.30;2.70;;;;;;;11.85;71.98;98855.39;104884;1271;76559;-25
2022/09/22 08:55:20;;;;;;;2.50;2.10;;;;;;;11.96;71.60;98855.77;104892;1271;77515;-23
2022/09/22 08:58:06;;;;;;;2.40;2.20;;;;;;;11.82;72.83;98856.48;104867;1272;74327;-24
2022/09/22 09:00:48;;;;;;;2.90;2.00;;;;;;;11.52;73.37;98862.63;105146;1271;61129;-25
2022/09/22 09:03:29;;;;;;;2.10;1.80;;;;;;;11.24;73.66;98855.17;104730;1274;62155;-25
2022/09/22 09:06:15;;;;;;;2.80;1.60;;;;;;;11.56;73.55;98855.95;104850;1271;75189;-24
2022/09/22 09:09:20;;;;;;;5.80;2.60;;;;;;;12.14;71.74;98851.38;105113;1271;77121;-26
2022/09/22 09:11:51;;;;;;;4.40;1.90;;;;;;;12.46;68.74;98841.86;105110;1271;75150;-26
2022/09/22 09:14:29;;;;;;;4.40;2.20;;;;;;;12.68;68.70;98839.30;105139;1271;63125;-26
2022/09/22 09:16:59;;;;;;;2.00;1.80;;;;;;;12.76;67.92;98836.61;105137;1271;63023;-24
2022/09/22 09:19:30;;;;;;;3.40;2.20;;;;;;;12.51;68.43;98841.39;104713;1271;75448;-24
2022/09/22 09:22:26;;;;;;;2.30;1.90;;;;;;;12.24;67.79;98838.85;104991;1271;75981;-25
2022/09/22 09:25:03;;;;;;;2.30;1.70;;;;;;;12.27;68.62;98838.93;104704;1272;75351;-25
2022/09/22 09:27:56;;;;;;;1.70;1.60;;;;;;;12.46;68.08;98839.59;104779;1271;62157;-24
2022/09/22 09:30:24;;;;;;;2.90;1.70;;;;;;;12.27;67.58;98834.52;104667;1271;63063;-24
2022/09/22 09:32:56;;;;;;;2.60;1.90;;;;;;;11.94;68.95;98841.69;105006;1271;75587;-24
2022/09/22 09:35:38;;;;;;;2.30;2.00;;;;;;;11.66;70.35;98837.35;104652;1271;74912;-24
2022/09/22 09:38:10;;;;;;;3.10;2.00;;;;;;;11.57;71.69;98846.13;105148;1271;75235;-24
2022/09/22 09:40:37;;;;;;;3.00;1.80;;;;;;;12.13;69.20;98839.58;104954;1271;63196;-24
2022/09/22 09:43:04;;;;;;;2.30;1.50;;;;;;;12.71;69.31;98833.98;104896;1271;63032;-24
2022/09/22 09:45:43;;;;;;;4.40;1.70;;;;;;;12.70;68.26;98829.16;104998;1271;76539;-24
2022/09/22 09:48:15;;;;;;;2.20;1.60;;;;;;;12.56;69.31;98835.15;105135;1271;76797;-24
2022/09/22 09:50:42;;;;;;;1.40;1.30;;;;;;;12.38;68.45;98831.31;104827;1271;74154;-24
2022/09/22 09:53:36;;;;;;;3.10;1.70;;;;;;;12.20;68.28;98830.98;105051;1271;62924;-25
2022/09/22 09:56:32;;;;;;;2.90;1.40;;;;;;;12.19;68.81;98835.56;105126;1271;63024;-25
2022/09/22 10:01:49;;;;;;;2.20;1.50;;;;;;;12.12;69.83;98845.48;104789;1271;76994;-25
2022/09/22 10:04:26;;;;;;;2.60;1.50;;;;;;;12.47;66.99;98840.00;104744;1271;75701;-25
2022/09/22 10:06:53;;;;;;;2.90;1.10;;;;;;;13.36;65.66;98839.76;104922;1271;63142;-25
2022/09/22 10:09:27;;;;;;;2.30;1.20;;;;;;;14.11;62.49;98833.70;104759;1271;62041;-25
2022/09/22 10:12:02;;;;;;;2.60;1.10;;;;;;;14.49;60.51;98822.06;104734;1271;74188;-25
2022/09/22 10:14:31;;;;;;;1.20;1.00;;;;;;;13.49;61.29;98821.71;104966;1271;76922;-25
2022/09/22 10:16:58;;;;;;;2.20;1.00;;;;;;;13.90;60.70;98832.38;105119;1271;74146;-24
2022/09/22 10:19:29;;;;;;;1.60;1.10;;;;;;;14.04;58.33;98832.84;104833;1271;61253;-25
2022/09/22 10:22:24;;;;;;;1.40;1.00;;;;;;;13.82;59.87;98834.60;104858;1271;62980;-24
2022/09/22 10:25:01;;;;;;;5.90;1.40;;;;;;;13.54;62.88;98831.70;104923;1271;75447;-24
2022/09/22 10:27:29;;;;;;;1.50;1.10;;;;;;;13.28;63.17;98831.08;104920;1269;76926;-24
2022/09/22 10:30:12;;;;;;;1.30;1.10;;;;;;;13.50;61.92;98827.94;104657;1269;75492;-24
2022/09/22 10:32:39;;;;;;;9.70;2.80;;;;;;;13.78;61.00;98828.35;104843;1271;61998;-24
2022/09/22 10:35:24;;;;;;;1.90;1.10;;;;;;;14.07;59.83;98829.20;104780;1271;60970;-23
2022/09/22 10:37:55;;;;;;;1.00;0.90;;;;;;;13.76;58.97;98830.52;104648;1271;75633;-24
2022/09/22 10:40:22;;;;;;;3.40;2.20;;;;;;;13.64;59.14;98827.65;104865;1271;76124;-24
2022/09/22 10:42:50;;;;;;;1.20;1.00;;;;;;;13.88;59.44;98834.58;105049;1271;73686;-24
2022/09/22 10:45:18;;;;;;;1.40;0.90;;;;;;;14.08;58.34;98831.88;104719;1271;61687;-24
2022/09/22 10:47:58;;;;;;;1.10;1.00;;;;;;;13.95;58.47;98832.45;105124;1270;61623;-24
2022/09/22 10:51:07;;;;;;;1.90;1.10;;;;;;;13.43;59.90;98824.39;104994;1272;76586;-24
2022/09/22 10:54:08;;;;;;;2.40;1.10;;;;;;;12.78;62.39;98832.98;104827;1271;77171;-24
2022/09/22 10:56:36;;;;;;;1.70;1.00;;;;;;;12.43;64.29;98837.13;104945;1271;75141;-24
2022/09/22 10:59:25;;;;;;;1.00;0.90;;;;;;;12.18;66.44;98840.73;104709;1271;62618;-25
2022/09/22 11:02:06;;;;;;;1.40;0.90;;;;;;;12.03;67.55;98843.33;104774;1271;61268;-24
2022/09/22 11:05:10;;;;;;;4.90;1.90;;;;;;;11.79;67.58;98841.09;104709;1271;76469;-24
2022/09/22 11:13:53;;;;;;;3.20;2.90;;;;;;;12.31;64.88;98829.65;105021;1271;61967;-25
2022/09/22 11:16:36;;;;;;;1.20;1.10;;;;;;;12.34;64.86;98830.58;105049;1271;61099;-25
2022/09/22 11:19:29;;;;;;;1.20;0.90;;;;;;;12.52;63.66;98824.66;105013;1271;76312;-25
2022/09/22 11:22:17;;;;;;;1.20;0.90;;;;;;;12.45;63.44;98819.16;105094;1271;77024;-25
2022/09/22 11:24:54;;;;;;;1.60;1.10;;;;;;;12.40;64.15;98817.67;104992;1272;74419;-24
2022/09/22 11:27:44;;;;;;;1.30;1.10;;;;;;;12.33;65.36;98817.81;105097;1271;62900;-23
2022/09/22 11:30:20;;;;;;;2.00;1.00;;;;;;;12.36;64.60;98814.61;104879;1272;61703;-24
2022/09/22 11:33:02;;;;;;;1.90;1.00;;;;;;;12.63;65.27;98818.52;104730;1271;76674;-24
2022/09/22 11:35:47;;;;;;;2.00;1.20;;;;;;;12.61;66.24;98815.36;105074;1271;77188;-23
2022/09/22 11:38:27;;;;;;;3.80;1.40;;;;;;;12.18;67.79;98816.89;104986;1270;75758;-24
2022/09/22 11:41:00;;;;;;;1.30;1.00;;;;;;;12.14;68.23;98818.30;105068;1270;61826;-23
2022/09/22 11:44:01;;;;;;;1.10;0.80;;;;;;;12.21;67.39;98819.59;105093;1271;61774;-23
2022/09/22 11:46:47;;;;;;;3.70;1.10;;;;;;;12.22;65.82;98816.02;105159;1271;76582;-23
2022/09/22 11:49:14;;;;;;;2.80;1.20;;;;;;;12.29;66.21;98816.58;105151;1271;76075;-24
2022/09/22 11:52:19;;;;;;;1.60;0.80;;;;;;;12.62;65.26;98815.86;105106;1271;75113;-24
2022/09/22 11:55:11;;;;;;;6.60;1.00;;;;;;;13.42;63.04;98814.56;105099;1271;61724;-24
2022/09/22 11:57:40;;;;;;;0.80;0.70;;;;;;;13.81;61.83;98812.77;105112;1271;62778;-24
2022/09/22 12:00:16;;;;;;;1.30;0.80;;;;;;;13.37;60.33;98810.32;104956;1271;75539;-24
2022/09/22 12:02:59;;;;;;;2.30;1.00;;;;;;;13.05;61.30;98807.94;105101;1271;76868;-24
2022/09/22 12:05:50;;;;;;;1.20;1.00;;;;;;;13.06;61.87;98814.88;105122;1271;75499;-24
2022/09/22 12:08:28;;;;;;;2.20;1.20;;;;;;;13.02;62.00;98811.57;105128;1271;61084;-24